Terminal Aerodrome Forecast
Issued by NWS

Home | Current Version | Previous Version | Text Only | Print | Product List | Glossary On
Versions: 1 2 3 4 5 6 7 8 9 10 11 12 13 14 15 16 17 18 19 20 21 22 23 24 25 26 27 28 29
421
FTUS46 KLOX 220507 AAD
TAFVNY
TAF AMD
KVNY 220507Z 2205/2224 21005KT P6SM OVC050
     FM221100 VRB05KT 3SM BR OVC011
     FM221400 35010KT 6SM BR SCT015
     FM221700 36012G18KT P6SM SCT025 BKN040=

USA.gov is the U.S. government's official web portal to all federal, state and local government web resources and services.